Exeter, Pennsylvania
Current Conditions -  °F | °C
As of 5:54 PM on Thursday 18 Dec 2014 (Local Time) from KAVP Reporting Station
Overcast Overcast  
Wind Chill: 27°   Ceiling: 2000
Heat Index: 35°   Visibility: 10mi
Dew Point: 26°   Wind: 10mph
Humidity: 70%   Direction: 300°WNW
Pressure: 29.99"   Gusts: NA
Location:  41.3688°N, 75.837°W
Report Text: KAVP 182254Z AUTO 30009KT 10SM OVC020 02/M03 A2999 RMK AO2 SLP164 T00171033
Loading
Personal Weather Stations






























Interactive Weather Map New forecast layout! Learn more

10-Day Weather Forecast

Advertisements
Track Severe Weather on mobile